Terminal Aerodrome Forecast
Issued by NWS Knoxville/Tri Cities, TN

Current Version | Previous Version | Text Only | Print | Product List | Glossary On
Versions: 1 2 3 4 5 6 7 8 9 10 11 12 13 14 15 16 17 18
000
FTUS44 KMRX 220522
TAFCHA
TAF
KCHA 220522Z 2206/2306 VRB04KT P6SM SCT150 BKN250
     FM221500 15011G18KT P6SM SCT040 SCT150 BKN250
     FM222300 15009KT P6SM SCT040 OVC250
     FM230400 15006KT P6SM SCT040 OVC120=

USA.gov is the U.S. government's official web portal to all federal, state and local government web resources and services.